createdAt,value
2023-03-29T00:00:02.022Z,0.3
2023-03-29T00:14:26.834Z,0.7
2023-03-29T00:18:33.020Z,0.3
2023-03-29T00:20:36.095Z,0.2
2023-03-29T00:22:39.200Z,0.7
2023-03-29T00:24:42.302Z,0.1
2023-03-29T00:26:45.388Z,0.9
2023-03-29T00:28:51.681Z,0.3
2023-03-29T00:30:54.812Z,0.4
2023-03-29T00:36:04.173Z,0.4
2023-03-29T00:38:07.279Z,0.3
2023-03-29T00:40:10.299Z,0.6
2023-03-29T00:44:19.694Z,0.4
2023-03-29T00:54:35.151Z,0.4
2023-03-29T01:06:57.018Z,0.8
2023-03-29T01:13:09.460Z,0.5
2023-03-29T01:15:12.535Z,0.2
2023-03-29T01:23:24.921Z,0.7
2023-03-29T01:27:34.310Z,0.3
2023-03-29T01:30:40.566Z,0.4
2023-03-29T01:32:43.691Z,0.2
2023-03-29T01:34:46.770Z,1
2023-03-29T01:36:49.863Z,0.3
2023-03-29T01:40:59.252Z,0.5
2023-03-29T01:43:02.530Z,0.7
2023-03-29T01:45:05.379Z,0.3
2023-03-29T01:47:08.494Z,0.6
2023-03-29T01:49:11.579Z,0.4
2023-03-29T01:51:14.682Z,0.1
2023-03-29T01:53:20.972Z,0.2
2023-03-29T01:55:24.047Z,0.2
2023-03-29T01:57:27.215Z,0.7
2023-03-29T02:07:45.767Z,2.6
2023-03-29T02:13:54.999Z,0.7
2023-03-29T02:15:58.093Z,0.8
2023-03-29T02:18:01.214Z,0.3
2023-03-29T02:20:04.286Z,0.1
2023-03-29T02:22:10.578Z,0.6
2023-03-29T02:24:13.696Z,0.1
2023-03-29T02:26:16.777Z,0.2
2023-03-29T02:34:59.138Z,0.4
2023-03-29T02:37:02.235Z,0.7
2023-03-29T02:39:05.372Z,0.5
2023-03-29T02:41:08.462Z,0.3
2023-03-29T02:43:11.542Z,0.4
2023-03-29T02:45:14.658Z,0.2
2023-03-29T02:47:17.760Z,0
2023-03-29T02:49:24.049Z,0.1
2023-03-29T02:51:27.149Z,0.2
2023-03-29T02:53:30.244Z,0.2
2023-03-29T02:57:36.425Z,0.4
2023-03-29T03:05:52.038Z,1
2023-03-29T03:12:01.378Z,1.1
2023-03-29T03:14:04.428Z,0.7
2023-03-29T03:16:07.600Z,0.9
2023-03-29T03:18:13.874Z,1.1
2023-03-29T03:20:16.925Z,1.3
2023-03-29T03:25:26.242Z,1.4
2023-03-29T03:27:29.357Z,0.7
2023-03-29T03:29:32.546Z,1.2
2023-03-29T03:35:44.934Z,1.4
2023-03-29T03:37:48.025Z,0.9
2023-03-29T03:39:51.108Z,1.4
2023-03-29T03:41:54.222Z,0.6
2023-03-29T03:43:57.298Z,0.7
2023-03-29T03:48:06.761Z,0.9
2023-03-29T03:58:22.192Z,0.9
2023-03-29T04:04:34.698Z,0.6
2023-03-29T04:06:37.799Z,0.6
2023-03-29T04:08:40.932Z,1
2023-03-29T04:10:43.963Z,0.9
2023-03-29T04:12:47.062Z,1.6
2023-03-29T04:14:53.399Z,2.8
2023-03-29T04:16:56.476Z,1.5
2023-03-29T04:18:59.638Z,1.2
2023-03-29T04:20:02.679Z,2.2
2023-03-29T04:22:05.776Z,1.5
2023-03-29T04:24:08.901Z,1
2023-03-29T04:28:18.275Z,1.5
2023-03-29T04:34:27.569Z,1.1
2023-03-29T04:38:33.736Z,1
2023-03-29T04:40:36.847Z,0.6
2023-03-29T04:44:46.268Z,0.9
2023-03-29T04:46:49.411Z,1.1
2023-03-29T04:48:52.403Z,1.2
2023-03-29T04:50:55.530Z,1.9
2023-03-29T04:52:58.610Z,1.2
2023-03-29T04:55:01.698Z,1.5
2023-03-29T04:57:08.026Z,3.2
2023-03-29T04:59:11.090Z,0.9
2023-03-29T05:01:14.221Z,4.8
2023-03-29T05:03:17.329Z,0.8
2023-03-29T05:05:20.404Z,3.6
2023-03-29T05:07:23.525Z,0.8
2023-03-29T05:11:32.922Z,0.9
2023-03-29T05:13:36.030Z,0.9
2023-03-29T05:16:42.463Z,0.7
2023-03-29T05:18:45.401Z,1.2
2023-03-29T05:20:48.538Z,0.4
2023-03-29T05:27:02.589Z,0.9
2023-03-29T05:33:12.027Z,1.3
2023-03-29T05:35:15.004Z,1.1
2023-03-29T05:37:18.127Z,0.6
2023-03-29T05:39:24.413Z,1.5
2023-03-29T05:45:33.788Z,1.9
2023-03-29T05:47:36.945Z,2.1
2023-03-29T05:49:39.955Z,1
2023-03-29T05:51:43.045Z,2
2023-03-29T06:02:01.840Z,1.4
2023-03-29T06:08:14.320Z,0.3
2023-03-29T06:10:17.440Z,1.5
2023-03-29T06:12:20.532Z,2.2
2023-03-29T06:14:44.659Z,1.1
2023-03-29T06:20:57.198Z,1.8
2023-03-29T06:23:00.300Z,1.8
2023-03-29T06:25:03.424Z,2.2
2023-03-29T06:27:06.526Z,1.2
2023-03-29T06:29:09.634Z,0.7
2023-03-29T06:31:12.804Z,0.8
2023-03-29T06:33:16.075Z,1.4
2023-03-29T06:35:22.186Z,1.3
2023-03-29T06:37:25.293Z,1.4
2023-03-29T06:39:28.399Z,0.7
2023-03-29T06:41:31.552Z,1.6
2023-03-29T06:43:34.662Z,1.8
2023-03-29T06:45:37.814Z,0.5
2023-03-29T06:49:47.210Z,1.2
2023-03-29T07:04:12.226Z,1.4
2023-03-29T07:06:15.305Z,1.3
2023-03-29T07:08:18.397Z,1.4
2023-03-29T07:09:21.579Z,0.7
2023-03-29T07:11:24.685Z,2.3
2023-03-29T07:13:27.806Z,1.7
2023-03-29T07:15:30.942Z,0.4
2023-03-29T07:17:37.285Z,1.4
2023-03-29T07:19:40.377Z,2.1
2023-03-29T07:21:43.475Z,1.2
2023-03-29T07:23:46.645Z,0.6
2023-03-29T07:25:49.740Z,1.5
2023-03-29T07:27:52.888Z,1.2
2023-03-29T07:29:55.951Z,0.7
2023-03-29T07:38:11.648Z,2.7
2023-03-29T07:40:14.797Z,1.2
2023-03-29T07:42:17.920Z,0.7
2023-03-29T07:44:21.033Z,2.1
2023-03-29T07:46:27.429Z,1.3
2023-03-29T07:54:39.823Z,2.2
2023-03-29T08:00:52.494Z,1.2
2023-03-29T08:06:01.920Z,1.2
2023-03-29T08:08:05.062Z,2
2023-03-29T08:10:08.193Z,0.7
2023-03-29T08:12:11.325Z,1.6
2023-03-29T08:14:17.696Z,2.2
2023-03-29T08:16:20.839Z,1.8
2023-03-29T08:18:24.012Z,1.6
2023-03-29T08:20:27.118Z,1.9
2023-03-29T08:22:30.249Z,1.4
2023-03-29T08:30:45.708Z,2.7
2023-03-29T08:32:51.540Z,1
2023-03-29T08:34:51.734Z,1
2023-03-29T08:36:54.800Z,0.8
2023-03-29T09:04:43.712Z,2.2
2023-03-29T09:06:46.746Z,2.4
2023-03-29T09:08:49.833Z,2.3
2023-03-29T09:10:55.982Z,3.2
2023-03-29T09:12:59.056Z,3.9
2023-03-29T09:15:02.093Z,2.9
2023-03-29T09:17:05.143Z,3.3
2023-03-29T09:19:08.196Z,4.6
2023-03-29T09:21:11.216Z,3.7
2023-03-29T09:25:20.446Z,3.3
2023-03-29T09:27:23.477Z,3.5
2023-03-29T09:29:26.530Z,4.1
2023-03-29T09:37:38.713Z,2.8
2023-03-29T09:45:54.083Z,2.1
2023-03-29T09:50:00.201Z,2.3
2023-03-29T09:52:03.188Z,3.1
2023-03-29T09:54:09.349Z,3.8
2023-03-29T09:56:12.422Z,2.5
2023-03-29T09:58:15.461Z,4.2
2023-03-29T10:04:51.049Z,2
2023-03-29T10:13:06.352Z,1.6
2023-03-29T10:19:15.482Z,3.3
2023-03-29T10:21:21.623Z,2.1
2023-03-29T10:23:24.684Z,1.7
2023-03-29T10:25:27.726Z,1.1
2023-03-29T10:29:33.823Z,1.6
2023-03-29T10:35:46.168Z,2.2
2023-03-29T10:37:49.143Z,2.3
2023-03-29T10:39:52.192Z,2.8
2023-03-29T10:46:01.414Z,2.4
2023-03-29T10:48:04.682Z,2.5
2023-03-29T10:50:10.577Z,2.9
2023-03-29T10:52:13.609Z,2.4
2023-03-29T10:54:16.655Z,3.1
2023-03-29T11:07:41.055Z,3.9
2023-03-29T11:09:44.129Z,3.7
2023-03-29T11:11:47.183Z,2.9
2023-03-29T11:13:50.237Z,2.6
2023-03-29T11:15:53.272Z,4
2023-03-29T11:18:01.050Z,4
2023-03-29T11:20:05.184Z,2.5
2023-03-29T11:24:10.037Z,3.1
2023-03-29T11:32:25.386Z,2.1
2023-03-29T11:44:43.932Z,2.3
2023-03-29T11:51:58.838Z,2.6
2023-03-29T11:54:01.897Z,1.7
2023-03-29T11:56:04.928Z,2.8
2023-03-29T11:58:07.997Z,2.3
2023-03-29T12:00:14.150Z,2.1
2023-03-29T12:02:17.221Z,1.9
2023-03-29T12:04:20.319Z,2.4
2023-03-29T12:06:23.273Z,1
2023-03-29T12:08:26.318Z,2.2
2023-03-29T12:10:29.341Z,2
2023-03-29T12:12:32.406Z,2.6
2023-03-29T12:14:38.536Z,1.4
2023-03-29T12:16:41.686Z,1.8
2023-03-29T12:20:47.684Z,2
2023-03-29T12:22:50.825Z,2.2
2023-03-29T12:24:53.793Z,2.7
2023-03-29T12:26:56.864Z,5.7
2023-03-29T12:29:03.001Z,1.9
2023-03-29T12:37:15.200Z,3.9
2023-03-29T12:48:36.650Z,2.1
2023-03-29T12:50:39.711Z,3.4
2023-03-29T12:52:42.777Z,3.1
2023-03-29T12:54:45.809Z,3.7
2023-03-29T12:56:52.026Z,3.4
2023-03-29T13:00:58.097Z,4
2023-03-29T13:03:01.198Z,5.2
2023-03-29T13:05:04.164Z,4.4
2023-03-29T13:07:07.355Z,3.6
2023-03-29T13:09:10.282Z,4
2023-03-29T13:11:16.434Z,4.6
2023-03-29T13:13:19.492Z,3.8
2023-03-29T13:15:22.543Z,3.2
2023-03-29T13:17:25.699Z,3.9
2023-03-29T13:25:40.886Z,4.1
2023-03-29T13:37:59.151Z,4.4
2023-03-29T13:40:05.331Z,7.3
2023-03-29T13:42:08.384Z,6.3
2023-03-29T13:44:11.419Z,5
2023-03-29T13:46:41.051Z,5.1
2023-03-29T14:03:08.426Z,5.3
2023-03-29T14:05:11.421Z,4.8
2023-03-29T14:13:26.728Z,4.7
2023-03-29T14:17:32.885Z,5.4
2023-03-29T14:19:35.868Z,6.2
2023-03-29T14:41:15.679Z,4.7
2023-03-29T14:43:18.710Z,5.8
2023-03-29T14:47:24.842Z,3.2
2023-03-29T14:53:37.081Z,5
2023-03-29T14:55:40.125Z,3.3
2023-03-29T15:01:49.307Z,4.1
2023-03-29T15:12:07.626Z,5.8
2023-03-29T15:18:19.914Z,3.9
2023-03-29T15:22:25.976Z,2.1
2023-03-29T15:26:32.064Z,3.6
2023-03-29T15:28:35.124Z,2.1
2023-03-29T15:30:38.191Z,4
2023-03-29T15:32:44.416Z,4.6
2023-03-29T15:34:47.404Z,3.6
2023-03-29T15:36:50.485Z,2.8
2023-03-29T15:37:53.514Z,2.6
2023-03-29T15:39:56.572Z,4
2023-03-29T15:41:59.613Z,3.3
2023-03-29T15:48:11.894Z,5.1
2023-03-29T15:50:14.928Z,3.3
2023-03-29T15:52:17.958Z,2
2023-03-29T15:54:20.990Z,2.9
2023-03-29T15:58:27.106Z,1.9
2023-03-29T16:02:36.403Z,3.3
2023-03-29T16:06:42.411Z,3.7
2023-03-29T16:14:57.685Z,5.6
2023-03-29T16:34:31.405Z,3.1
2023-03-29T16:36:34.357Z,4.6
2023-03-29T16:38:37.411Z,4
2023-03-29T16:40:40.456Z,3.5
2023-03-29T16:42:46.613Z,6.3
2023-03-29T16:44:49.726Z,3.9
2023-03-29T16:46:52.712Z,2.5
2023-03-29T16:48:55.731Z,6
2023-03-29T16:50:58.796Z,4.6
2023-03-29T16:53:01.858Z,5.1
2023-03-29T16:55:04.944Z,5.7
2023-03-29T16:57:11.088Z,2.8
2023-03-29T16:59:14.112Z,3
2023-03-29T17:01:17.195Z,3.8
2023-03-29T17:03:20.240Z,3.7
2023-03-29T17:05:23.281Z,2.8
2023-03-29T17:07:26.347Z,3
2023-03-29T17:15:43.199Z,3.4
2023-03-29T17:17:46.272Z,3.5
2023-03-29T17:19:49.264Z,2.6
2023-03-29T17:21:52.338Z,3.5
2023-03-29T17:23:55.391Z,4
2023-03-29T17:26:01.865Z,3
2023-03-29T17:30:07.654Z,3
2023-03-29T17:32:37.123Z,3.6
2023-03-29T17:34:40.154Z,2.7
2023-03-29T17:42:55.432Z,4
2023-03-29T17:47:01.654Z,2.4
2023-03-29T17:53:13.794Z,2.3
2023-03-29T17:55:16.857Z,2.2
2023-03-29T17:57:19.964Z,1.6
2023-03-29T17:59:22.967Z,2.4
2023-03-29T18:01:26.137Z,3.9
2023-03-29T18:03:29.130Z,2.4
2023-03-29T18:05:32.114Z,1.1
2023-03-29T18:07:38.262Z,2.8
2023-03-29T18:09:41.330Z,2.2
2023-03-29T18:11:44.370Z,2
2023-03-29T18:15:50.525Z,1.7
2023-03-29T18:17:53.546Z,3.1
2023-03-29T18:19:56.577Z,2.5
2023-03-29T18:22:02.747Z,2.4
2023-03-29T18:24:05.809Z,2
2023-03-29T18:26:08.835Z,2.3
2023-03-29T18:27:11.919Z,4.6
2023-03-29T18:29:14.983Z,3
2023-03-29T18:31:18.015Z,3.3
2023-03-29T18:35:27.235Z,3.7
2023-03-29T18:37:30.274Z,5.7
2023-03-29T18:39:33.324Z,4
2023-03-29T18:41:36.339Z,3.8
2023-03-29T18:43:39.361Z,5.9
2023-03-29T18:45:42.436Z,7.5
2023-03-29T18:49:51.602Z,5.4
2023-03-29T19:10:25.185Z,3.2
2023-03-29T19:12:28.237Z,5.6
2023-03-29T19:14:31.275Z,4.5
2023-03-29T19:25:52.693Z,4.4
2023-03-29T19:27:55.756Z,5.1
2023-03-29T19:29:58.802Z,4.8
2023-03-29T19:38:14.258Z,2.8
2023-03-29T19:40:17.125Z,3.1
2023-03-29T19:46:29.485Z,2.7
2023-03-29T19:50:35.514Z,3.8
2023-03-29T19:54:41.603Z,3.2
2023-03-29T19:56:44.691Z,3.9
2023-03-29T19:58:47.697Z,3.8
2023-03-29T20:00:53.873Z,4.4
2023-03-29T20:05:00.028Z,2.8
2023-03-29T20:15:18.350Z,3.2
2023-03-29T20:17:21.390Z,3
2023-03-29T20:19:24.438Z,2.7
2023-03-29T20:20:27.556Z,4.4
2023-03-29T20:22:30.580Z,4.6
2023-03-29T20:24:33.612Z,8.2
2023-03-29T20:26:36.664Z,5.6
2023-03-29T20:28:42.870Z,5.2
2023-03-29T20:30:45.869Z,4.9
2023-03-29T20:32:49.003Z,4.5
2023-03-29T20:34:51.993Z,4.7
2023-03-29T20:36:55.193Z,4.1
2023-03-29T20:41:01.282Z,5
2023-03-29T20:43:07.262Z,4.4
2023-03-29T20:45:10.330Z,4.5
2023-03-29T20:47:13.372Z,2.8
2023-03-29T20:51:19.460Z,2.7
2023-03-29T20:53:22.504Z,3.6
2023-03-29T20:59:34.779Z,3.6
2023-03-29T21:01:37.836Z,4.2
2023-03-29T21:05:43.920Z,5.2
2023-03-29T21:07:46.971Z,2.6
2023-03-29T21:09:50.108Z,4.8
2023-03-29T21:11:56.174Z,5.4
2023-03-29T21:13:59.228Z,3.6
2023-03-29T21:16:02.349Z,6.1
2023-03-29T21:20:29.335Z,3.3
2023-03-29T21:24:38.531Z,2.9
2023-03-29T21:36:56.864Z,3.4
2023-03-29T21:41:06.249Z,1.9
2023-03-29T21:43:09.111Z,4.2
2023-03-29T21:47:15.186Z,1.9
2023-03-29T21:53:27.648Z,2.6
2023-03-29T21:55:30.532Z,3.1
2023-03-29T21:57:33.594Z,3.8
2023-03-29T21:59:36.657Z,1.6
2023-03-29T22:01:39.760Z,2.7
2023-03-29T22:03:42.736Z,2.2
2023-03-29T22:05:45.788Z,2.1
2023-03-29T22:07:51.961Z,2.7
2023-03-29T22:15:04.194Z,2.7
2023-03-29T22:17:07.240Z,1.8
2023-03-29T22:19:10.305Z,2.6
2023-03-29T22:27:26.507Z,1.8
2023-03-29T22:33:35.640Z,1.7
2023-03-29T22:35:41.830Z,1.6
2023-03-29T22:37:44.848Z,1.2
2023-03-29T22:39:47.913Z,1.4
2023-03-29T22:41:50.948Z,1.2
2023-03-29T22:45:57.060Z,0.6
2023-03-29T22:48:00.186Z,1.2
2023-03-29T22:52:09.295Z,1.1
2023-03-29T23:09:41.421Z,1.3
2023-03-29T23:11:44.484Z,0.8
2023-03-29T23:13:47.518Z,1.4
2023-03-29T23:15:50.572Z,0.8
2023-03-29T23:17:56.731Z,0.4
2023-03-29T23:19:59.767Z,1.2
2023-03-29T23:30:15.004Z,0.8
2023-03-29T23:32:21.151Z,2.6
2023-03-29T23:34:24.224Z,1.3
2023-03-29T23:36:27.274Z,1.1
2023-03-29T23:38:30.322Z,0.7
2023-03-29T23:44:39.461Z,0.3
2023-03-29T23:50:51.715Z,1.1
2023-03-29T23:52:54.774Z,0.9
2023-03-29T23:54:57.799Z,0.6
2023-03-29T23:57:00.886Z,1
2023-03-29T23:59:03.908Z,0.4
